FW1453 Weather Reports


Display with metric or nautical units.
time (UTC)temp
F
wind
direction
speed
MPH
gust
MPH
rain 1hr
in
rain 24hr
in
rain mn
in
humidity
%
barometer
mb
20210916115309 65 21 1.0 5.0 0.00 0.30 0.26 98 1021.6
20210916114808 65 156 0.0 3.0 0.00 0.30 0.26 98 1021.7
20210916114306 65 125 1.0 4.0 0.00 0.30 0.26 98 1021.8
20210916113807 65 355 2.0 4.0 0.00 0.30 0.26 98 1022.0
20210916113307 65 48 0.0 3.0 0.00 0.30 0.26 98 1022.1
20210916112806 64 12 0.0 0.0 0.00 0.30 0.26 98 1021.8
20210916112307 64 126 0.0 0.0 0.00 0.30 0.26 98 1022.0
20210916111807 64 327 0.0 0.0 0.01 0.30 0.26 98 1022.3
20210916111307 65 327 0.0 0.0 0.01 0.30 0.26 98 1022.4
20210916110807 64 328 0.0 0.0 0.02 0.30 0.26 98 1022.3
20210916110305 64 278 0.0 0.0 0.03 0.30 0.26 98 1022.2
20210916105805 64 314 0.0 0.0 0.03 0.30 0.26 98 1021.8
20210916105305 64 6 0.0 0.0 0.04 0.30 0.26 98 1020.9
20210916104803 64 8 0.0 0.0 0.04 0.30 0.26 98 1020.9
20210916104301 64 35 0.0 0.0 0.04 0.30 0.26 98 1021.1
20210916103801 64 35 0.0 0.0 0.04 0.30 0.26 98 1020.9
20210916103300 65 346 0.0 1.0 0.04 0.30 0.26 98 1020.9
20210916102802 65 36 0.0 1.0 0.04 0.30 0.26 98 1021.0
20210916102300 65 88 0.0 1.0 0.04 0.30 0.26 98 1021.2
20210916101759 65 29 0.0 1.0 0.04 0.29 0.25 98 1021.6
20210916101256 65 29 0.0 1.0 0.04 0.29 0.25 98 1021.7
20210916100757 65 17 0.0 1.0 0.03 0.28 0.24 98 1021.7
20210916100255 65 174 0.0 1.0 0.02 0.27 0.23 98 1021.5
20210916095753 65 174 0.0 1.0 0.03 0.27 0.23 98 1021.8
20210916095253 65 154 1.0 3.0 0.02 0.26 0.22 98 1021.8
20210916094750 65 144 1.0 4.0 0.03 0.26 0.22 98 1021.7
20210916094248 65 320 0.0 4.0 0.03 0.26 0.22 98 1021.2
20210916093748 65 24 0.0 0.0 0.03 0.26 0.22 98 1020.6
20210916093249 65 24 0.0 2.0 0.03 0.26 0.22 98 1020.3
20210916092749 65 5 0.0 3.0 0.03 0.26 0.22 98 1020.3
20210916092248 65 14 0.0 3.0 0.03 0.26 0.22 98 1020.2
20210916091748 65 109 0.0 2.0 0.03 0.25 0.21 98 1020.3
20210916091246 65 322 0.0 1.0 0.03 0.25 0.21 98 1020.5
20210916090745 65 320 0.0 1.0 0.05 0.25 0.21 98 1020.5
20210916090244 65 320 0.0 1.0 0.06 0.25 0.21 98 1020.4
20210916085744 65 320 0.0 1.0 0.05 0.24 0.20 98 1020.0
20210916085244 65 320 1.0 2.0 0.05 0.24 0.20 98 1020.0
20210916084744 65 146 1.0 2.0 0.04 0.23 0.19 98 1019.7
20210916084245 65 355 0.0 0.0 0.04 0.23 0.19 98 1019.7
20210916083746 65 355 0.0 0.0 0.04 0.23 0.19 98 1019.6
20210916083244 65 26 0.0 1.0 0.04 0.23 0.19 98 1019.2
20210916082744 65 26 0.0 1.0 0.04 0.23 0.19 98 1019.3
20210916082242 65 154 0.0 1.0 0.04 0.23 0.19 98 1019.4
20210916081742 65 155 0.0 2.0 0.03 0.22 0.18 97 1019.5
20210916081242 65 156 0.0 2.0 0.03 0.22 0.18 98 1019.4
20210916080742 65 137 0.0 2.0 0.01 0.20 0.16 98 1019.6
20210916080242 65 130 1.0 2.0 0.01 0.19 0.15 97 1019.8
20210916075742 66 205 0.0 2.0 0.01 0.19 0.15 98 1019.8
20210916075242 66 277 0.0 1.0 0.01 0.19 0.15 98 1019.4
20210916074743 66 173 0.0 0.0 0.01 0.19 0.15 97 1019.2
20210916074243 66 173 0.0 1.0 0.01 0.19 0.15 97 1019.1
20210916073744 66 174 0.0 1.0 0.01 0.19 0.15 97 1019.1
20210916073242 66 268 0.0 1.0 0.03 0.19 0.15 97 1019.2
20210916072742 66 317 0.0 0.0 0.06 0.19 0.15 97 1019.0
20210916072242 66 317 0.0 0.0 0.07 0.19 0.15 97 1018.9
20210916071742 66 317 0.0 0.0 0.07 0.19 0.15 97 1018.8
20210916071242 66 317 0.0 1.0 0.08 0.19 0.15 97 1018.9
20210916070743 66 317 0.0 1.0 0.15 0.19 0.15 97 1019.0
20210916070240 66 317 0.0 0.0 0.14 0.18 0.14 97 1019.1
20210916065744 66 317 0.0 0.0 0.14 0.18 0.14 97 1019.2
20210916065240 66 317 0.0 0.0 0.14 0.18 0.14 97 1019.2
20210916064740 66 317 0.0 1.0 0.14 0.18 0.14 97 1019.1
20210916064240 66 317 0.0 2.0 0.14 0.18 0.14 97 1019.0
20210916063740 66 156 0.0 2.0 0.14 0.18 0.14 97 1018.8
20210916063242 66 148 0.0 1.0 0.12 0.16 0.13 97 1019.1
20210916062741 66 175 0.0 1.0 0.09 0.13 0.10 97 1019.0
20210916062240 66 175 0.0 2.0 0.08 0.12 0.08 97 1019.0
20210916061740 66 322 1.0 3.0 0.08 0.12 0.08 97 1019.1
20210916061240 66 59 1.0 3.0 0.07 0.11 0.07 97 1019.2
20210916060738 66 194 0.0 3.0 0.00 0.04 0.00 97 1019.2
20210916060237 66 178 0.0 0.0 0.00 0.04 0.00 97 1018.8
20210916055736 66 206 0.0 0.0 0.00 0.04 0.00 97 1018.9
20210916055236 66 296 0.0 0.0 0.00 0.04 0.00 97 1018.6
20210916054735 66 296 0.0 0.0 0.00 0.04 0.00 97 1018.5
20210916054234 66 296 0.0 0.0 0.00 0.04 0.00 97 1018.6
20210916053734 66 296 0.0 0.0 0.00 0.04 0.00 97 1018.5
20210916053235 66 194 0.0 0.0 0.00 0.04 0.00 97 1018.5
20210916052734 66 293 0.0 0.0 0.00 0.04 0.00 97 1018.6
20210916052235 66 260 0.0 0.0 0.00 0.04 0.00 97 1018.5
20210916051734 66 179 0.0 0.0 0.00 0.04 0.00 97 1018.4
20210916051235 66 187 0.0 2.0 0.00 0.04 0.00 97 1018.4
20210916050734 66 199 0.0 2.0 0.00 0.04 0.00 97 1018.7
20210916050234 66 180 0.0 2.0 0.00 0.04 0.00 97 1018.6
20210916045734 66 234 0.0 1.0 0.00 0.04 0.00 97 1018.4
20210916045234 66 272 0.0 1.0 0.00 0.04 0.00 98 1018.4
20210916044734 66 7 0.0 2.0 0.00 0.04 0.00 98 1018.3
20210916044236 66 300 0.0 2.0 0.00 0.04 0.00 98 1018.1
20210916043734 66 175 0.0 0.0 0.00 0.04 0.00 97 1017.8
20210916043235 66 175 0.0 0.0 0.00 0.04 0.00 98 1017.8
20210916042733 66 175 0.0 0.0 0.00 0.04 0.00 97 1017.7
20210916042232 66 174 0.0 0.0 0.00 0.04 0.00 97 1017.8
20210916041732 66 173 0.0 1.0 0.00 0.04 0.00 97 1017.7
20210916041234 66 173 0.0 1.0 0.00 0.04 0.00 97 1017.8
20210916040732 66 180 0.0 1.0 0.00 0.04 0.00 97 1017.8
20210916040229 66 185 0.0 1.0 0.00 0.04 0.00 97 1017.9
20210916035729 66 199 0.0 0.0 0.00 0.04 0.04 97 1017.9
20210916035228 66 175 0.0 0.0 0.00 0.04 0.04 97 1018.0
20210916034729 66 178 0.0 0.0 0.00 0.04 0.04 97 1018.0
20210916034228 66 177 0.0 0.0 0.00 0.04 0.04 97 1017.8
20210916033726 66 177 0.0 1.0 0.00 0.04 0.04 97 1017.9
20210916033228 66 177 0.0 1.0 0.00 0.04 0.04 97 1017.9
20210916032725 66 280 0.0 0.0 0.00 0.04 0.04 97 1017.9
20210916032223 66 280 0.0 0.0 0.00 0.04 0.04 97 1017.7
20210916031721 66 280 0.0 0.0 0.00 0.04 0.04 97 1017.5
20210916031221 66 280 0.0 1.0 0.00 0.04 0.04 97 1017.6
20210916030719 67 280 0.0 1.0 0.00 0.04 0.04 97 1017.8
20210916030217 67 280 0.0 1.0 0.00 0.04 0.04 97 1017.6
20210916025717 67 280 0.0 1.0 0.00 0.04 0.04 97 1017.5
20210916025217 67 280 0.0 2.0 0.00 0.04 0.04 97 1017.5
20210916024716 67 275 1.0 3.0 0.00 0.04 0.04 97 1017.6
20210916024217 67 268 1.0 3.0 0.00 0.04 0.04 97 1017.6
20210916023717 67 292 0.0 1.0 0.00 0.04 0.04 97 1017.6
20210916023216 67 266 0.0 0.0 0.00 0.04 0.04 97 1017.6
20210916022716 67 210 0.0 0.0 0.00 0.04 0.04 97 1017.6
20210916022217 67 210 0.0 0.0 0.00 0.04 0.04 97 1017.5
20210916021716 67 211 0.0 0.0 0.00 0.04 0.04 96 1017.5
20210916021217 67 211 0.0 0.0 0.00 0.04 0.04 97 1017.5
20210916020718 67 211 0.0 0.0 0.00 0.04 0.04 96 1017.4
20210916020216 67 211 0.0 0.0 0.00 0.04 0.04 96 1017.3
20210916015716 68 211 0.0 0.0 0.00 0.04 0.04 96 1017.3
20210916015217 68 211 0.0 0.0 0.00 0.04 0.04 96 1017.4
20210916014718 68 223 0.0 0.0 0.00 0.04 0.04 96 1017.3
20210916014216 68 223 0.0 0.0 0.00 0.04 0.04 96 1017.3
20210916013717 68 159 0.0 0.0 0.00 0.04 0.04 96 1017.3
20210916013217 68 157 0.0 0.0 0.00 0.04 0.04 96 1017.1
20210916012716 68 157 0.0 1.0 0.00 0.04 0.04 95 1017.1
20210916012217 68 157 0.0 1.0 0.01 0.04 0.04 95 1016.8
20210916011717 68 303 0.0 0.0 0.04 0.04 0.04 95 1016.8
20210916011216 68 303 0.0 2.0 0.04 0.04 0.04 95 1016.6
20210916010716 68 303 0.0 2.0 0.04 0.04 0.04 94 1016.5
20210916010216 69 314 1.0 2.0 0.04 0.04 0.04 94 1016.6
20210916005716 69 178 1.0 2.0 0.04 0.04 0.04 94 1016.6
20210916005217 69 280 0.0 2.0 0.04 0.04 0.04 93 1016.4
20210916004716 69 186 0.0 1.0 0.04 0.04 0.04 92 1016.1
20210916004216 70 186 0.0 2.0 0.04 0.04 0.04 91 1016.3
20210916003716 70 170 0.0 2.0 0.04 0.04 0.04 90 1016.6
20210916003217 71 164 0.0 1.0 0.04 0.04 0.04 89 1016.5
20210916002716 71 159 2.0 12.0 0.04 0.04 0.04 86 1016.5
20210916002215 73 351 2.0 12.0 0.03 0.03 0.03 84 1016.5
20210916001715 74 161 2.0 9.0 0.00 0.00 0.00 79 1016.5
20210916001214 74 289 1.0 4.0 0.00 0.00 0.00 78 1016.2
20210916000712 74 318 1.0 3.0 0.00 0.00 0.00 78 1016.2
20210916000212 75 178 1.0 3.0 0.00 0.00 0.00 78 1016.1
20210915235712 75 190 2.0 9.0 0.00 0.00 0.00 77 1015.7
20210915235213 75 256 1.0 9.0 0.00 0.00 0.00 76 1015.5
20210915234712 75 298 0.0 2.0 0.00 0.00 0.00 76 1015.2
20210915234212 75 21 0.0 2.0 0.00 0.00 0.00 76 1014.9
20210915233713 75 152 1.0 4.0 0.00 0.00 0.00 76 1015.0
20210915233212 76 197 4.0 12.0 0.00 0.00 0.00 76 1014.8
20210915232712 76 17 3.0 12.0 0.00 0.00 0.00 76 1014.3
20210915232210 76 66 1.0 7.0 0.00 0.00 0.00 77 1014.5
20210915231712 76 142 2.0 8.0 0.00 0.00 0.00 79 1014.6
20210915231210 76 17 2.0 8.0 0.00 0.00 0.00 80 1014.5
20210915230710 77 337 1.0 6.0 0.00 0.00 0.00 83 1014.3
20210915230208 77 322 1.0 6.0 0.00 0.00 0.00 82 1013.9
20210915225708 77 274 2.0 6.0 0.00 0.00 0.00 82 1013.7
20210915225207 78 194 2.0 7.0 0.00 0.00 0.00 81 1013.6
20210915224706 78 178 3.0 7.0 0.00 0.00 0.00 81 1013.5
20210915224204 78 184 3.0 7.0 0.00 0.00 0.00 81 1013.4
20210915223704 78 215 3.0 7.0 0.00 0.00 0.00 80 1013.5
20210915223204 78 185 4.0 9.0 0.00 0.00 0.00 80 1013.3
20210915222705 78 221 4.0 9.0 0.00 0.00 0.00 80 1013.3
20210915222204 79 180 4.0 9.0 0.00 0.00 0.00 79 1013.1
20210915221704 79 218 4.0 9.0 0.00 0.00 0.00 79 1013.1
20210915221204 79 164 4.0 12.0 0.00 0.00 0.00 78 1013.1
20210915220704 79 239 5.0 12.0 0.00 0.00 0.00 78 1012.9
20210915220202 80 223 5.0 11.0 0.00 0.00 0.00 77 1012.8
20210915215702 80 210 5.0 12.0 0.00 0.00 0.00 77 1012.8
20210915215203 80 214 6.0 12.0 0.00 0.00 0.00 76 1012.7
20210915214703 80 204 6.0 12.0 0.00 0.00 0.00 76 1012.6
20210915214202 81 171 5.0 12.0 0.00 0.00 0.00 75 1012.6
20210915213702 81 200 6.0 14.0 0.00 0.00 0.00 75 1012.4
20210915213201 81 180 6.0 14.0 0.00 0.00 0.00 75 1012.4
20210915212702 82 211 7.0 15.0 0.00 0.00 0.00 74 1012.4
20210915212202 81 251 8.0 15.0 0.00 0.00 0.00 74 1012.2
20210915211701 82 192 7.0 15.0 0.00 0.00 0.00 74 1012.2
20210915211200 82 207 7.0 17.0 0.00 0.00 0.00 74 1012.1
20210915210701 82 213 7.0 17.0 0.00 0.00 0.00 74 1012.0
20210915210200 82 175 6.0 14.0 0.00 0.00 0.00 74 1012.0
20210915205700 82 187 5.0 14.0 0.00 0.00 0.00 75 1012.1
20210915205200 82 223 5.0 13.0 0.00 0.00 0.00 75 1012.0
20210915204700 82 169 5.0 13.0 0.00 0.00 0.00 76 1012.0
20210915204200 82 212 5.0 10.0 0.00 0.00 0.00 76 1011.9
20210915203700 82 227 5.0 10.0 0.00 0.00 0.00 75 1011.9
20210915203200 82 261 5.0 13.0 0.00 0.00 0.00 75 1012.0
20210915202701 82 252 6.0 13.0 0.00 0.00 0.00 74 1012.0
20210915202158 82 187 6.0 13.0 0.00 0.00 0.00 74 1011.9
20210915201657 82 164 7.0 15.0 0.00 0.00 0.00 74 1011.9
20210915201158 82 222 7.0 18.0 0.00 0.00 0.00 75 1012.0
20210915200658 82 219 8.0 18.0 0.00 0.00 0.00 74 1012.0
20210915200159 82 211 9.0 16.0 0.00 0.00 0.00 73 1011.9
20210915195657 83 186 8.0 16.0 0.00 0.00 0.00 73 1011.9
20210915195158 83 191 6.0 14.0 0.00 0.00 0.00 74 1011.9
20210915194701 83 137 7.0 14.0 0.00 0.00 0.00 73 1012.0
20210915194158 83 165 7.0 13.0 0.00 0.00 0.00 73 1011.9
20210915193657 83 252 6.0 13.0 0.00 0.00 0.00 72 1011.9
20210915193158 83 218 7.0 15.0 0.00 0.00 0.00 73 1012.0
20210915192658 83 264 7.0 15.0 0.00 0.00 0.00 73 1012.0
20210915192158 83 204 6.0 13.0 0.00 0.00 0.00 74 1011.9
20210915191658 83 178 6.0 13.0 0.00 0.00 0.00 75 1011.8
20210915191158 83 197 7.0 13.0 0.00 0.00 0.00 75 1011.8
20210915190657 83 207 8.0 16.0 0.00 0.00 0.00 74 1011.8
20210915190156 83 233 8.0 19.0 0.00 0.00 0.00 74 1011.8
20210915185657 83 211 7.0 19.0 0.00 0.00 0.00 74 1011.7
20210915185155 83 211 6.0 15.0 0.00 0.00 0.00 75 1011.8
20210915184656 83 182 6.0 13.0 0.00 0.00 0.00 76 1011.8
20210915184156 82 164 7.0 17.0 0.00 0.00 0.00 76 1011.8
20210915183654 82 174 6.0 17.0 0.00 0.00 0.00 76 1011.7
20210915183154 82 346 7.0 16.0 0.00 0.00 0.00 76 1011.8
20210915182654 82 229 8.0 16.0 0.00 0.00 0.00 75 1012.0
20210915182154 82 201 7.0 16.0 0.00 0.00 0.00 76 1012.0
20210915181653 82 209 6.0 13.0 0.00 0.00 0.00 77 1011.9
20210915181154 82 248 6.0 15.0 0.00 0.00 0.00 78 1012.0
20210915180655 82 257 6.0 15.0 0.00 0.00 0.00 76 1012.1
20210915180155 82 201 6.0 13.0 0.00 0.00 0.00 77 1011.9
20210915175653 82 246 6.0 17.0 0.00 0.00 0.00 77 1012.0
20210915175153 82 172 7.0 17.0 0.00 0.00 0.00 77 1012.0
20210915174654 82 229 7.0 15.0 0.00 0.00 0.00 76 1012.1
20210915174154 82 262 7.0 15.0 0.00 0.00 0.00 77 1012.2
20210915173654 82 160 6.0 15.0 0.00 0.00 0.00 77 1012.2
20210915173153 82 230 8.0 17.0 0.00 0.00 0.00 77 1012.3
20210915172654 82 168 8.0 17.0 0.00 0.00 0.00 77 1012.4
20210915172153 82 187 7.0 17.0 0.00 0.00 0.00 78 1012.4
20210915171654 82 191 6.0 17.0 0.00 0.00 0.00 77 1012.4
20210915171154 82 184 5.0 11.0 0.00 0.00 0.00 79 1012.7
20210915170653 82 134 6.0 12.0 0.00 0.00 0.00 78 1012.8
20210915170153 82 167 5.0 12.0 0.00 0.00 0.00 78 1012.9
20210915165653 81 276 6.0 20.0 0.00 0.00 0.00 80 1013.1
20210915165153 81 173 7.0 20.0 0.00 0.00 0.00 79 1013.1
20210915164653 81 223 7.0 13.0 0.00 0.00 0.00 80 1013.4
20210915164154 81 159 7.0 14.0 0.00 0.00 0.00 80 1013.3
20210915163653 81 199 6.0 14.0 0.00 0.00 0.00 80 1013.4
20210915163153 80 223 6.0 13.0 0.00 0.00 0.00 80 1013.5
20210915162654 80 156 6.0 13.0 0.00 0.00 0.00 82 1013.5
20210915162153 80 197 6.0 14.0 0.00 0.00 0.00 81 1013.6
20210915161653 80 213 5.0 14.0 0.00 0.00 0.00 82 1013.6
20210915161152 79 181 3.0 10.0 0.00 0.00 0.00 84 1013.6
20210915160651 78 194 4.0 10.0 0.00 0.00 0.00 85 1013.8
20210915160147 78 157 4.0 9.0 0.00 0.00 0.00 85 1013.8
20210915155647 78 166 5.0 11.0 0.00 0.00 0.00 85 1013.8
20210915155149 78 199 6.0 12.0 0.00 0.00 0.00 84 1013.8
20210915154647 78 168 6.0 12.0 0.00 0.00 0.00 85 1013.9
20210915154148 77 196 6.0 12.0 0.00 0.00 0.00 85 1014.0
20210915153647 77 187 5.0 12.0 0.00 0.00 0.00 85 1014.1
20210915153147 77 216 5.0 10.0 0.00 0.00 0.00 85 1014.1
20210915152646 77 249 5.0 9.0 0.00 0.00 0.00 86 1013.9
20210915152146 76 195 5.0 14.0 0.00 0.00 0.00 87 1014.1
20210915151646 76 193 6.0 14.0 0.00 0.00 0.00 87 1014.2
20210915151145 76 199 6.0 13.0 0.00 0.00 0.00 87 1014.1
20210915150643 76 213 6.0 11.0 0.00 0.00 0.00 87 1014.1
20210915150143 76 178 6.0 11.0 0.00 0.00 0.00 87 1014.2
20210915145645 76 203 6.0 11.0 0.00 0.00 0.00 87 1014.2
20210915145143 76 248 6.0 11.0 0.00 0.00 0.00 87 1014.2
20210915144643 76 168 7.0 13.0 0.00 0.00 0.00 87 1014.2
20210915144143 75 183 6.0 13.0 0.00 0.00 0.00 87 1014.2
20210915143643 75 204 5.0 12.0 0.00 0.00 0.00 88 1014.2
20210915143143 75 208 5.0 13.0 0.00 0.00 0.00 89 1014.3
20210915142642 74 136 5.0 13.0 0.00 0.00 0.00 89 1014.4
20210915142144 74 172 4.0 9.0 0.00 0.00 0.00 89 1014.3
20210915141643 74 254 3.0 8.0 0.00 0.00 0.00 90 1014.4
20210915141143 73 183 3.0 7.0 0.00 0.00 0.00 90 1014.4
20210915140643 73 270 3.0 8.0 0.00 0.00 0.00 90 1014.5
20210915140143 73 182 3.0 8.0 0.00 0.00 0.00 90 1014.5
20210915135643 73 225 3.0 6.0 0.00 0.00 0.00 91 1014.5
20210915135143 73 256 4.0 7.0 0.00 0.00 0.00 91 1014.5
20210915134643 73 191 4.0 8.0 0.00 0.00 0.00 91 1014.6
20210915134144 73 187 3.0 8.0 0.00 0.00 0.00 91 1014.6
20210915133641 72 299 3.0 7.0 0.00 0.00 0.00 91 1014.6
20210915133142 72 212 3.0 9.0 0.00 0.00 0.00 92 1014.5
20210915132642 72 242 3.0 9.0 0.00 0.00 0.00 92 1014.4
20210915132143 72 188 3.0 9.0 0.00 0.00 0.00 92 1014.4
20210915131641 71 192 3.0 9.0 0.00 0.00 0.00 93 1014.5
20210915131142 71 192 4.0 8.0 0.00 0.00 0.00 93 1014.5
20210915130641 71 168 4.0 8.0 0.00 0.00 0.00 93 1014.4
20210915130141 71 162 3.0 10.0 0.00 0.00 0.00 93 1014.4
20210915125639 71 200 3.0 10.0 0.00 0.00 0.00 93 1014.4
20210915125140 71 208 3.0 8.0 0.00 0.00 0.00 93 1014.3
20210915124638 71 220 2.0 6.0 0.00 0.00 0.00 93 1014.4
20210915124139 71 213 2.0 8.0 0.00 0.00 0.00 93 1014.3
20210915123639 71 209 2.0 8.0 0.00 0.00 0.00 93 1014.4
20210915123140 70 265 2.0 5.0 0.00 0.00 0.00 94 1014.3
20210915122639 70 169 2.0 5.0 0.00 0.00 0.00 94 1014.3
20210915122139 70 147 2.0 5.0 0.00 0.00 0.00 94 1014.3
20210915121639 70 198 2.0 6.0 0.00 0.00 0.00 94 1014.5
20210915121139 70 240 3.0 6.0 0.00 0.00 0.00 95 1014.6
20210915120636 70 203 3.0 6.0 0.00 0.00 0.00 95 1014.5
20210915120137 69 201 3.0 6.0 0.00 0.00 0.00 95 1014.6